Time;durP1;ratioP1;P1;durP2;ratioP2;P2;SDS_P1;SDS_P2;PMS_P1;PMS_P2;Temp;Humidity;BMP_temperature;BMP_pressure;BME280_temperature;BME280_humidity;BME280_pressure;Samples;Min_cycle;Max_cycle;Signal;HPM_P1;HPM_P2
2022/01/09 00:00:34;;;;;;;;;;;5.70;99.90;;;;;;2089706;28;20343;-71
2022/01/09 00:01:34;;;;;;;;;;;5.70;99.90;;;;;;2089673;28;20012;-71
2022/01/09 00:02:34;;;;;;;;;;;5.70;99.90;;;;;;2089799;28;19909;-71
2022/01/09 00:03:35;;;;;;;;;;;5.70;99.90;;;;;;2090319;28;19967;-71
2022/01/09 00:04:35;;;;;;;;;;;5.70;99.90;;;;;;2089878;28;19913;-71
2022/01/09 00:05:36;;;;;;;;;;;5.60;99.90;;;;;;2090213;28;20818;-71
2022/01/09 00:06:36;;;;;;;;;;;5.60;99.90;;;;;;2089127;28;19985;-71
2022/01/09 00:07:37;;;;;;;;;;;5.60;99.90;;;;;;2093803;28;19955;-71
2022/01/09 00:08:38;;;;;;;;;;;5.70;99.90;;;;;;2092306;28;19995;-71
2022/01/09 00:09:41;;;;;;;;;;;5.70;99.90;;;;;;2091632;28;19919;-71
2022/01/09 00:10:47;;;;;;;;;;;5.70;99.90;;;;;;2091588;28;19962;-71
2022/01/09 00:11:47;;;;;;;;;;;5.70;99.90;;;;;;2091738;28;19962;-71
2022/01/09 00:12:48;;;;;;;;;;;5.70;99.90;;;;;;2091409;28;19908;-71
2022/01/09 00:13:49;;;;;;;;;;;5.70;99.90;;;;;;2091685;28;19908;-71
2022/01/09 00:14:49;;;;;;;;;;;5.70;99.90;;;;;;2091382;28;19916;-71
2022/01/09 00:15:50;;;;;;;;;;;5.70;99.90;;;;;;2091547;28;19913;-71
2022/01/09 00:16:50;;;;;;;;;;;5.60;99.90;;;;;;2090761;28;19948;-71
2022/01/09 00:17:51;;;;;;;;;;;5.60;99.90;;;;;;2103093;28;19908;-71
2022/01/09 00:18:51;;;;;;;;;;;5.70;99.90;;;;;;2098667;28;19955;-72
2022/01/09 00:19:52;;;;;;;;;;;5.60;99.90;;;;;;2091590;28;19909;-71
2022/01/09 00:20:52;;;;;;;;;;;5.70;99.90;;;;;;2091300;28;20487;-71
2022/01/09 00:21:52;;;;;;;;;;;5.70;99.90;;;;;;2091522;28;19909;-71
2022/01/09 00:22:55;;;;;;;;;;;5.70;99.90;;;;;;2091303;28;19963;-71
2022/01/09 00:23:56;;;;;;;;;;;5.70;99.90;;;;;;2091610;28;19992;-71
2022/01/09 00:24:56;;;;;;;;;;;5.70;99.90;;;;;;2098752;28;19916;-71
2022/01/09 00:25:57;;;;;;;;;;;5.70;99.90;;;;;;2098319;28;19916;-71
2022/01/09 00:26:57;;;;;;;;;;;5.70;99.90;;;;;;2089289;28;20275;-71
2022/01/09 00:27:58;;;;;;;;;;;5.70;99.90;;;;;;2091456;28;19987;-71
2022/01/09 00:28:58;;;;;;;;;;;5.70;99.90;;;;;;2090874;28;19919;-71
2022/01/09 00:29:59;;;;;;;;;;;5.70;99.90;;;;;;2090724;28;20491;-71
2022/01/09 00:31:00;;;;;;;;;;;5.70;99.90;;;;;;2090654;28;20443;-71
2022/01/09 00:32:00;;;;;;;;;;;5.70;99.90;;;;;;2091467;28;19916;-71
2022/01/09 00:33:01;;;;;;;;;;;5.70;99.90;;;;;;2091186;28;20361;-71
2022/01/09 00:34:01;;;;;;;;;;;5.70;99.90;;;;;;2091391;28;19909;-71
2022/01/09 00:35:03;;;;;;;;;;;5.70;99.90;;;;;;2091262;28;19909;-72
2022/01/09 00:36:03;;;;;;;;;;;5.70;99.90;;;;;;2091567;28;19908;-72
2022/01/09 00:37:04;;;;;;;;;;;5.70;99.90;;;;;;2086583;28;19914;-72
2022/01/09 00:38:04;;;;;;;;;;;5.70;99.90;;;;;;2091043;28;19916;-71
2022/01/09 00:39:05;;;;;;;;;;;5.70;99.90;;;;;;2091213;28;19909;-71
2022/01/09 00:40:06;;;;;;;;;;;5.70;99.90;;;;;;2091320;28;19938;-71
2022/01/09 00:41:07;;;;;;;;;;;5.70;99.90;;;;;;2090583;28;19913;-71
2022/01/09 00:42:07;;;;;;;;;;;5.70;99.90;;;;;;2090015;28;19923;-71
2022/01/09 00:43:09;;;;;;;;;;;5.70;99.90;;;;;;2091442;28;19920;-71
2022/01/09 00:44:09;;;;;;;;;;;5.70;99.90;;;;;;2091155;28;19909;-71
2022/01/09 00:45:10;;;;;;;;;;;5.70;99.90;;;;;;2090584;28;19916;-71
2022/01/09 00:46:11;;;;;;;;;;;5.70;99.90;;;;;;2090421;28;19916;-71
2022/01/09 00:47:11;;;;;;;;;;;5.70;99.90;;;;;;2088949;28;19948;-72
2022/01/09 00:48:12;;;;;;;;;;;5.70;99.90;;;;;;2091212;28;19959;-71
2022/01/09 00:49:12;;;;;;;;;;;5.70;99.90;;;;;;2090242;28;19912;-71
2022/01/09 00:50:14;;;;;;;;;;;5.80;99.90;;;;;;2090421;28;19991;-71
2022/01/09 00:51:14;;;;;;;;;;;5.80;99.90;;;;;;2083135;28;20374;-71
2022/01/09 00:52:15;;;;;;;;;;;5.80;99.90;;;;;;2087485;28;19909;-71
2022/01/09 00:53:15;;;;;;;;;;;5.80;99.90;;;;;;2098907;28;19909;-71
2022/01/09 00:54:16;;;;;;;;;;;5.80;99.90;;;;;;2098759;28;20046;-71
2022/01/09 00:55:18;;;;;;;;;;;5.80;99.90;;;;;;2090938;28;19913;-71
2022/01/09 00:56:18;;;;;;;;;;;5.80;99.90;;;;;;2091157;28;19954;-71
2022/01/09 00:57:19;;;;;;;;;;;5.80;99.90;;;;;;2090773;28;19963;-71
2022/01/09 00:58:19;;;;;;;;;;;5.80;99.90;;;;;;2091076;28;19919;-71
2022/01/09 00:59:20;;;;;;;;;;;5.70;99.90;;;;;;2089525;28;19913;-71
2022/01/09 01:00:20;;;;;;;;;;;5.70;99.90;;;;;;2091113;28;20380;-71
2022/01/09 01:01:21;;;;;;;;;;;5.70;99.90;;;;;;2087079;28;20372;-71
2022/01/09 01:02:21;;;;;;;;;;;5.70;99.90;;;;;;2097897;28;20500;-71
2022/01/09 01:03:22;;;;;;;;;;;5.80;99.90;;;;;;2098761;28;19908;-71
2022/01/09 01:04:22;;;;;;;;;;;5.80;99.90;;;;;;2090282;28;19920;-71
2022/01/09 01:05:23;;;;;;;;;;;5.80;99.90;;;;;;2089529;28;19967;-71
2022/01/09 01:06:23;;;;;;;;;;;5.80;99.90;;;;;;2089529;28;20342;-71
2022/01/09 01:07:23;;;;;;;;;;;5.80;99.90;;;;;;2082726;28;19917;-71
2022/01/09 01:08:24;;;;;;;;;;;5.80;99.90;;;;;;2092507;28;19908;-71
2022/01/09 01:09:29;;;;;;;;;;;5.80;99.90;;;;;;2088729;28;20012;-71
2022/01/09 01:10:30;;;;;;;;;;;5.80;99.90;;;;;;2088966;28;19923;-71
2022/01/09 01:11:30;;;;;;;;;;;5.80;99.90;;;;;;2089582;28;20031;-72
2022/01/09 01:12:31;;;;;;;;;;;5.80;99.90;;;;;;2089342;28;19908;-71
2022/01/09 01:13:31;;;;;;;;;;;5.80;99.90;;;;;;2089579;28;19964;-72
2022/01/09 01:14:32;;;;;;;;;;;5.80;99.90;;;;;;2089370;28;19944;-71
2022/01/09 01:15:33;;;;;;;;;;;5.80;99.90;;;;;;2087743;28;19913;-71
2022/01/09 01:16:33;;;;;;;;;;;5.80;99.90;;;;;;2087071;28;19913;-71
2022/01/09 01:17:35;;;;;;;;;;;5.80;99.90;;;;;;2084917;28;19909;-71
2022/01/09 01:18:36;;;;;;;;;;;5.80;99.90;;;;;;2089240;28;19912;-72
2022/01/09 01:19:36;;;;;;;;;;;5.80;99.90;;;;;;2088852;28;19913;-71
2022/01/09 01:20:37;;;;;;;;;;;5.80;99.90;;;;;;2089677;28;19920;-71
2022/01/09 01:21:37;;;;;;;;;;;5.80;99.90;;;;;;2089173;28;19909;-72
2022/01/09 01:22:39;;;;;;;;;;;5.90;99.90;;;;;;2089476;28;19920;-72
2022/01/09 01:23:40;;;;;;;;;;;5.80;99.90;;;;;;2089292;28;19908;-71
2022/01/09 01:24:41;;;;;;;;;;;5.80;99.90;;;;;;2097025;28;19913;-71
2022/01/09 01:25:44;;;;;;;;;;;5.80;99.90;;;;;;2088538;28;19913;-71
2022/01/09 01:26:45;;;;;;;;;;;5.80;99.90;;;;;;2089413;28;20373;-72
2022/01/09 01:27:46;;;;;;;;;;;5.80;99.90;;;;;;2089711;28;20276;-72
2022/01/09 01:28:46;;;;;;;;;;;5.80;99.90;;;;;;2089044;28;19913;-71
2022/01/09 01:29:46;;;;;;;;;;;5.80;99.90;;;;;;2089107;28;19913;-71
2022/01/09 01:30:47;;;;;;;;;;;5.80;99.90;;;;;;2088040;28;19913;-71
2022/01/09 01:31:47;;;;;;;;;;;5.80;99.90;;;;;;2088678;28;20377;-72
2022/01/09 01:32:48;;;;;;;;;;;5.80;99.90;;;;;;2088615;28;20427;-72
2022/01/09 01:33:48;;;;;;;;;;;5.80;99.90;;;;;;2096788;28;19919;-72
2022/01/09 01:34:49;;;;;;;;;;;5.80;99.90;;;;;;2096130;28;19995;-71
2022/01/09 01:35:50;;;;;;;;;;;5.80;99.90;;;;;;2084357;28;20438;-72
2022/01/09 01:36:51;;;;;;;;;;;5.80;99.90;;;;;;2087049;28;20515;-72
2022/01/09 01:37:51;;;;;;;;;;;5.80;99.90;;;;;;2087125;28;19916;-72
2022/01/09 01:38:52;;;;;;;;;;;5.90;99.90;;;;;;2082047;28;19955;-72
2022/01/09 01:39:52;;;;;;;;;;;5.80;99.90;;;;;;2089286;28;19919;-71
2022/01/09 01:40:53;;;;;;;;;;;5.90;99.90;;;;;;2089142;28;19909;-72
2022/01/09 01:41:53;;;;;;;;;;;5.90;99.90;;;;;;2089279;28;20008;-72
2022/01/09 01:42:53;;;;;;;;;;;5.90;99.90;;;;;;2089549;28;19909;-72
2022/01/09 01:43:54;;;;;;;;;;;5.90;99.90;;;;;;2089194;28;19970;-72
2022/01/09 01:44:54;;;;;;;;;;;5.90;99.90;;;;;;2088434;28;19936;-71
2022/01/09 01:45:55;;;;;;;;;;;5.90;99.90;;;;;;2087876;28;19917;-72
2022/01/09 01:46:55;;;;;;;;;;;5.90;99.90;;;;;;2089453;28;20273;-72
2022/01/09 01:48:02;;;;;;;;;;;5.90;99.90;;;;;;2088305;28;19951;-71
2022/01/09 01:49:03;;;;;;;;;;;5.90;99.90;;;;;;2085860;28;19912;-71
2022/01/09 01:50:05;;;;;;;;;;;5.90;99.90;;;;;;2090403;28;19920;-71
2022/01/09 01:51:06;;;;;;;;;;;5.90;99.90;;;;;;2089420;28;19909;-71
2022/01/09 01:52:07;;;;;;;;;;;5.90;99.90;;;;;;2089129;28;19923;-71
2022/01/09 01:53:11;;;;;;;;;;;5.90;99.90;;;;;;2089441;28;19916;-71
2022/01/09 01:54:12;;;;;;;;;;;5.90;99.90;;;;;;2088860;28;19913;-71
2022/01/09 01:55:13;;;;;;;;;;;5.90;99.90;;;;;;2088112;28;19923;-71
2022/01/09 01:56:19;;;;;;;;;;;5.90;99.90;;;;;;2088537;28;19995;-71
2022/01/09 01:57:20;;;;;;;;;;;5.90;99.90;;;;;;2089478;28;20023;-72
2022/01/09 01:58:21;;;;;;;;;;;5.90;99.90;;;;;;2089057;28;19975;-72
2022/01/09 01:59:21;;;;;;;;;;;5.90;99.90;;;;;;2088921;28;20265;-71
2022/01/09 02:00:22;;;;;;;;;;;5.90;99.90;;;;;;2089650;28;19913;-72
2022/01/09 02:01:22;;;;;;;;;;;5.90;99.90;;;;;;2088766;28;19912;-72
2022/01/09 02:02:25;;;;;;;;;;;5.90;99.90;;;;;;2088920;28;19909;-72
2022/01/09 02:03:26;;;;;;;;;;;5.90;99.90;;;;;;2088453;28;19920;-73
2022/01/09 02:04:26;;;;;;;;;;;5.90;99.90;;;;;;2089047;28;19943;-72
2022/01/09 02:05:27;;;;;;;;;;;5.90;99.90;;;;;;2088162;28;19920;-72
2022/01/09 02:06:27;;;;;;;;;;;5.80;99.90;;;;;;2089183;28;19935;-72
2022/01/09 02:07:27;;;;;;;;;;;5.90;99.90;;;;;;2089222;28;19978;-72
2022/01/09 02:08:30;;;;;;;;;;;5.80;99.90;;;;;;2089075;28;19948;-72
2022/01/09 02:09:30;;;;;;;;;;;5.90;99.90;;;;;;2088484;28;19916;-72
2022/01/09 02:10:31;;;;;;;;;;;5.90;99.90;;;;;;2088485;28;19909;-72
2022/01/09 02:11:31;;;;;;;;;;;5.90;99.90;;;;;;2088532;28;19909;-72
2022/01/09 02:12:32;;;;;;;;;;;5.90;99.90;;;;;;2089359;28;19915;-72
2022/01/09 02:13:33;;;;;;;;;;;5.90;99.90;;;;;;2088802;28;19908;-72
2022/01/09 02:14:34;;;;;;;;;;;5.90;99.90;;;;;;2087210;28;20225;-72
2022/01/09 02:15:35;;;;;;;;;;;5.90;99.90;;;;;;2080568;28;19921;-74
2022/01/09 02:16:42;;;;;;;;;;;5.90;99.90;;;;;;2086477;28;19919;-72
2022/01/09 02:17:43;;;;;;;;;;;5.90;99.90;;;;;;2089064;28;19928;-73
2022/01/09 02:18:44;;;;;;;;;;;5.90;99.90;;;;;;2088688;28;19940;-72
2022/01/09 02:20:04;;;;;;;;;;;5.90;99.90;;;;;;2089209;28;20325;-72
2022/01/09 02:21:05;;;;;;;;;;;5.90;99.90;;;;;;2087696;28;19909;-73
2022/01/09 02:22:06;;;;;;;;;;;5.90;99.90;;;;;;2088803;28;19915;-72
2022/01/09 02:23:08;;;;;;;;;;;5.90;99.90;;;;;;2088954;28;20254;-72
2022/01/09 02:24:08;;;;;;;;;;;5.90;99.90;;;;;;2088566;28;19909;-72
2022/01/09 02:25:10;;;;;;;;;;;5.90;99.90;;;;;;2084520;28;19920;-72
2022/01/09 02:26:11;;;;;;;;;;;5.90;99.90;;;;;;2085273;28;20500;-72
2022/01/09 02:27:12;;;;;;;;;;;5.90;99.90;;;;;;2088924;28;20010;-72
2022/01/09 02:28:13;;;;;;;;;;;5.90;99.90;;;;;;2088984;28;19966;-72
2022/01/09 02:29:14;;;;;;;;;;;6.00;99.90;;;;;;2088592;28;20297;-72
2022/01/09 02:30:14;;;;;;;;;;;5.90;99.90;;;;;;2088936;28;19908;-72
2022/01/09 02:31:15;;;;;;;;;;;6.00;99.90;;;;;;2088879;28;19909;-73
2022/01/09 02:32:19;;;;;;;;;;;6.00;99.90;;;;;;2088837;28;19909;-72
2022/01/09 02:33:19;;;;;;;;;;;6.00;99.90;;;;;;2087233;28;20353;-72
2022/01/09 02:34:20;;;;;;;;;;;6.00;99.90;;;;;;2088738;28;20233;-72
2022/01/09 02:35:23;;;;;;;;;;;6.00;99.90;;;;;;2089204;28;20399;-72
2022/01/09 02:36:24;;;;;;;;;;;6.00;99.90;;;;;;2088229;28;19920;-73
2022/01/09 02:37:24;;;;;;;;;;;6.00;99.90;;;;;;2088944;28;20546;-73
2022/01/09 02:38:25;;;;;;;;;;;6.00;99.90;;;;;;2088584;28;19913;-73
2022/01/09 02:39:25;;;;;;;;;;;6.00;99.90;;;;;;2088054;28;19913;-72
2022/01/09 02:40:25;;;;;;;;;;;6.00;99.90;;;;;;2089107;28;19913;-72
2022/01/09 02:41:26;;;;;;;;;;;6.00;99.90;;;;;;2088893;28;19919;-72
2022/01/09 02:42:29;;;;;;;;;;;6.00;99.90;;;;;;2088857;28;19962;-72
2022/01/09 02:43:30;;;;;;;;;;;6.00;99.90;;;;;;2087364;28;20368;-72
2022/01/09 02:44:30;;;;;;;;;;;6.00;99.90;;;;;;2088646;28;20289;-72
2022/01/09 02:45:31;;;;;;;;;;;6.00;99.90;;;;;;2088579;28;19913;-72
2022/01/09 02:47:52;;;;;;;;;;;6.00;99.90;;;;;;2088028;28;19908;-72
2022/01/09 02:48:53;;;;;;;;;;;6.00;99.90;;;;;;2087420;28;19908;-72
2022/01/09 02:49:55;;;;;;;;;;;6.00;99.90;;;;;;2088091;28;19920;-72
2022/01/09 02:51:07;;;;;;;;;;;6.00;99.90;;;;;;2088198;28;19913;-72
2022/01/09 02:52:21;;;;;;;;;;;6.00;99.90;;;;;;2088879;28;20390;-72
2022/01/09 02:53:22;;;;;;;;;;;6.00;99.90;;;;;;2091026;28;19966;-72
2022/01/09 02:55:42;;;;;;;;;;;6.00;99.90;;;;;;2088184;28;19916;-72
2022/01/09 02:56:42;;;;;;;;;;;6.00;99.90;;;;;;2083571;28;19913;-72
2022/01/09 02:57:47;;;;;;;;;;;6.00;99.90;;;;;;2085135;28;19924;-72
2022/01/09 02:58:47;;;;;;;;;;;6.00;99.90;;;;;;2080197;28;19967;-73
2022/01/09 02:59:48;;;;;;;;;;;6.00;99.90;;;;;;2088580;28;20308;-73
2022/01/09 03:00:48;;;;;;;;;;;6.00;99.90;;;;;;2088406;28;19909;-74
2022/01/09 03:01:49;;;;;;;;;;;6.00;99.90;;;;;;2088449;28;20357;-73
2022/01/09 03:02:49;;;;;;;;;;;6.00;99.90;;;;;;2088615;28;19999;-73
2022/01/09 03:03:50;;;;;;;;;;;6.00;99.90;;;;;;2087630;28;20326;-73
2022/01/09 03:04:50;;;;;;;;;;;6.10;99.90;;;;;;2088966;28;19908;-72
2022/01/09 03:05:51;;;;;;;;;;;6.00;99.90;;;;;;2089512;28;19924;-72
2022/01/09 03:06:51;;;;;;;;;;;6.00;99.90;;;;;;2090045;28;20262;-72
2022/01/09 03:07:52;;;;;;;;;;;6.00;99.90;;;;;;2090202;28;20300;-72
2022/01/09 03:08:52;;;;;;;;;;;6.10;99.90;;;;;;2089774;28;20055;-72
2022/01/09 03:09:52;;;;;;;;;;;6.10;99.90;;;;;;2090152;28;19909;-72
2022/01/09 03:10:53;;;;;;;;;;;6.10;99.90;;;;;;2090099;28;19916;-72
2022/01/09 03:11:53;;;;;;;;;;;6.10;99.90;;;;;;2088268;28;19909;-72
2022/01/09 03:12:58;;;;;;;;;;;6.10;99.90;;;;;;2083717;28;19913;-73
2022/01/09 03:13:59;;;;;;;;;;;6.10;99.90;;;;;;2084661;28;19920;-73
2022/01/09 03:14:59;;;;;;;;;;;6.10;99.90;;;;;;2094861;28;19951;-73
2022/01/09 03:16:00;;;;;;;;;;;6.10;99.90;;;;;;2097559;28;19908;-72
2022/01/09 03:17:00;;;;;;;;;;;6.10;99.90;;;;;;2090165;28;19912;-72
2022/01/09 03:18:01;;;;;;;;;;;6.10;99.90;;;;;;2090316;28;19909;-72
2022/01/09 03:19:02;;;;;;;;;;;6.10;99.90;;;;;;2089806;28;20325;-72
2022/01/09 03:20:04;;;;;;;;;;;6.10;99.90;;;;;;2090202;28;20281;-72
2022/01/09 03:21:04;;;;;;;;;;;6.10;99.90;;;;;;2089924;28;20388;-72
2022/01/09 03:22:05;;;;;;;;;;;6.10;99.90;;;;;;2089540;28;20304;-72
2022/01/09 03:23:05;;;;;;;;;;;6.10;99.90;;;;;;2081320;28;19909;-72
2022/01/09 03:24:05;;;;;;;;;;;6.10;99.90;;;;;;2089377;28;19909;-72
2022/01/09 03:25:07;;;;;;;;;;;6.10;99.90;;;;;;2090264;28;20354;-72
2022/01/09 03:26:09;;;;;;;;;;;6.10;99.90;;;;;;2087540;28;19921;-72
2022/01/09 03:27:09;;;;;;;;;;;6.10;99.90;;;;;;2090278;28;19920;-73
2022/01/09 03:28:10;;;;;;;;;;;6.10;99.90;;;;;;2089948;28;19908;-72
2022/01/09 03:29:10;;;;;;;;;;;6.10;99.90;;;;;;2089921;28;19962;-72
2022/01/09 03:30:11;;;;;;;;;;;6.10;99.90;;;;;;2089021;28;19909;-72
2022/01/09 03:31:12;;;;;;;;;;;6.10;99.90;;;;;;2089634;28;20015;-73
2022/01/09 03:32:12;;;;;;;;;;;6.10;99.90;;;;;;2090063;28;19913;-72
2022/01/09 03:33:13;;;;;;;;;;;6.10;99.90;;;;;;2090168;28;20327;-72
2022/01/09 03:34:13;;;;;;;;;;;6.10;99.90;;;;;;2085632;28;19913;-72
2022/01/09 03:35:15;;;;;;;;;;;6.10;99.90;;;;;;2090265;28;19955;-72
2022/01/09 03:36:15;;;;;;;;;;;6.10;99.90;;;;;;2089988;28;19917;-73
2022/01/09 03:37:16;;;;;;;;;;;6.10;99.90;;;;;;2090138;28;19912;-73
2022/01/09 03:38:16;;;;;;;;;;;6.10;99.90;;;;;;2090061;28;20011;-73
2022/01/09 03:39:17;;;;;;;;;;;6.10;99.90;;;;;;2090177;28;20380;-73
2022/01/09 03:40:19;;;;;;;;;;;6.10;99.90;;;;;;2097554;28;19912;-72
2022/01/09 03:41:19;;;;;;;;;;;6.10;99.90;;;;;;2090320;28;20003;-72
2022/01/09 03:42:20;;;;;;;;;;;6.10;99.90;;;;;;2089225;28;20439;-73
2022/01/09 03:43:20;;;;;;;;;;;6.10;99.90;;;;;;2089655;28;19909;-73
2022/01/09 03:44:21;;;;;;;;;;;6.10;99.90;;;;;;2089705;28;20274;-72
2022/01/09 03:45:22;;;;;;;;;;;6.20;99.90;;;;;;2090082;28;19913;-73
2022/01/09 03:46:22;;;;;;;;;;;6.10;99.90;;;;;;2090035;28;19913;-73
2022/01/09 03:47:23;;;;;;;;;;;6.10;99.90;;;;;;2089441;28;19916;-73
2022/01/09 03:48:23;;;;;;;;;;;6.10;99.90;;;;;;2089091;28;19913;-73
2022/01/09 03:49:24;;;;;;;;;;;6.10;99.90;;;;;;2089259;28;19919;-73
2022/01/09 03:50:24;;;;;;;;;;;6.10;99.90;;;;;;2084293;28;19909;-72
2022/01/09 03:51:32;;;;;;;;;;;6.10;99.90;;;;;;2090280;28;19909;-73
2022/01/09 03:52:33;;;;;;;;;;;6.10;99.90;;;;;;2089810;28;19909;-73
2022/01/09 03:53:34;;;;;;;;;;;6.10;99.90;;;;;;2089439;28;19909;-73
2022/01/09 03:54:37;;;;;;;;;;;6.10;99.90;;;;;;2083438;28;19913;-73
2022/01/09 03:55:37;;;;;;;;;;;6.20;99.90;;;;;;2087566;28;19924;-73
2022/01/09 03:56:38;;;;;;;;;;;6.20;99.90;;;;;;2089875;28;19909;-73
2022/01/09 03:57:38;;;;;;;;;;;6.10;99.90;;;;;;2089488;28;19960;-73
2022/01/09 03:58:39;;;;;;;;;;;6.10;99.90;;;;;;2089309;28;19916;-73
2022/01/09 03:59:39;;;;;;;;;;;6.10;99.90;;;;;;2097430;28;19912;-73
2022/01/09 04:00:40;;;;;;;;;;;6.10;99.90;;;;;;2097650;28;19908;-73
2022/01/09 04:01:40;;;;;;;;;;;6.10;99.90;;;;;;2089003;28;19917;-72
2022/01/09 04:02:41;;;;;;;;;;;6.10;99.90;;;;;;2089342;28;19917;-73
2022/01/09 04:03:42;;;;;;;;;;;6.10;99.90;;;;;;2089954;28;20356;-73
2022/01/09 04:04:43;;;;;;;;;;;6.10;99.90;;;;;;2089724;28;20467;-72
2022/01/09 04:05:43;;;;;;;;;;;6.10;99.90;;;;;;2089817;28;19967;-72
2022/01/09 04:06:49;;;;;;;;;;;6.10;99.90;;;;;;2090096;28;19909;-72
2022/01/09 04:07:50;;;;;;;;;;;6.10;99.90;;;;;;2088419;28;20007;-73
2022/01/09 04:08:52;;;;;;;;;;;6.00;99.90;;;;;;2089754;28;19913;-72
2022/01/09 04:09:52;;;;;;;;;;;6.10;99.90;;;;;;2089823;28;19916;-73
2022/01/09 04:10:53;;;;;;;;;;;6.10;99.90;;;;;;2090145;28;19948;-73
2022/01/09 04:12:02;;;;;;;;;;;6.10;99.90;;;;;;2089876;28;19913;-73
2022/01/09 04:13:03;;;;;;;;;;;6.10;99.90;;;;;;2090263;28;19958;-73
2022/01/09 04:14:05;;;;;;;;;;;6.10;99.90;;;;;;2091590;28;19912;-73
2022/01/09 04:15:06;;;;;;;;;;;6.10;99.90;;;;;;2091434;28;20350;-73
2022/01/09 04:16:07;;;;;;;;;;;6.10;99.90;;;;;;2098872;28;19924;-72
2022/01/09 04:17:12;;;;;;;;;;;6.10;99.90;;;;;;2099177;28;19908;-73
2022/01/09 04:18:14;;;;;;;;;;;6.10;99.90;;;;;;2091406;28;19920;-73
2022/01/09 04:19:14;;;;;;;;;;;6.10;99.90;;;;;;2098905;28;19909;-73
2022/01/09 04:20:15;;;;;;;;;;;6.10;99.90;;;;;;2098896;28;19934;-73
2022/01/09 04:21:15;;;;;;;;;;;6.20;99.90;;;;;;2091313;28;19919;-73
2022/01/09 04:22:16;;;;;;;;;;;6.20;99.90;;;;;;2098776;28;19916;-73
2022/01/09 04:23:17;;;;;;;;;;;6.20;99.90;;;;;;2098898;28;19921;-73
2022/01/09 04:24:18;;;;;;;;;;;6.20;99.90;;;;;;2091186;28;20353;-73
2022/01/09 04:25:18;;;;;;;;;;;6.20;99.90;;;;;;2091498;28;19947;-73
2022/01/09 04:26:21;;;;;;;;;;;6.20;99.90;;;;;;2088581;28;19923;-73
2022/01/09 04:27:22;;;;;;;;;;;6.20;99.90;;;;;;2089895;28;19923;-74
2022/01/09 04:28:22;;;;;;;;;;;6.20;99.90;;;;;;2091178;28;19915;-73
2022/01/09 04:29:23;;;;;;;;;;;6.20;99.90;;;;;;2091209;28;20349;-73
2022/01/09 04:30:23;;;;;;;;;;;6.20;99.90;;;;;;2091107;28;19948;-73
2022/01/09 04:31:24;;;;;;;;;;;6.20;99.90;;;;;;2091458;28;20357;-73
2022/01/09 04:32:24;;;;;;;;;;;6.20;99.90;;;;;;2091234;28;19936;-73
2022/01/09 04:33:25;;;;;;;;;;;6.30;99.90;;;;;;2091576;28;19940;-73
2022/01/09 04:34:25;;;;;;;;;;;6.30;99.90;;;;;;2091120;28;20250;-73
2022/01/09 04:35:26;;;;;;;;;;;6.30;99.90;;;;;;2091327;28;20315;-73
2022/01/09 04:36:26;;;;;;;;;;;6.30;99.90;;;;;;2089005;28;20658;-73
2022/01/09 04:37:27;;;;;;;;;;;6.30;99.90;;;;;;2086622;28;20357;-73
2022/01/09 04:38:28;;;;;;;;;;;6.30;99.90;;;;;;2091188;28;19917;-73
2022/01/09 04:39:29;;;;;;;;;;;6.30;99.90;;;;;;2091267;28;19945;-72
2022/01/09 04:40:29;;;;;;;;;;;6.30;99.90;;;;;;2091073;28;20311;-73
2022/01/09 04:41:30;;;;;;;;;;;6.30;99.90;;;;;;2091347;28;19916;-72
2022/01/09 04:42:38;;;;;;;;;;;6.30;99.90;;;;;;2091183;28;19915;-73
2022/01/09 04:43:41;;;;;;;;;;;6.30;99.90;;;;;;2091405;28;20403;-73
2022/01/09 04:44:42;;;;;;;;;;;6.30;99.90;;;;;;2090440;28;19944;-73
2022/01/09 04:45:42;;;;;;;;;;;6.30;99.90;;;;;;2090500;28;19909;-73
2022/01/09 04:46:49;;;;;;;;;;;6.40;99.90;;;;;;2091079;28;19909;-73
2022/01/09 04:47:52;;;;;;;;;;;6.30;99.90;;;;;;2091506;28;20256;-73
2022/01/09 04:48:54;;;;;;;;;;;6.30;99.90;;;;;;2090985;28;20651;-73
2022/01/09 04:49:55;;;;;;;;;;;6.40;99.90;;;;;;2091432;28;19916;-73
2022/01/09 04:50:58;;;;;;;;;;;6.40;99.90;;;;;;2090866;28;19913;-73
2022/01/09 04:51:58;;;;;;;;;;;6.40;99.90;;;;;;2086129;28;20324;-73
2022/01/09 04:53:04;;;;;;;;;;;6.40;99.90;;;;;;2090400;28;19974;-73
2022/01/09 04:54:05;;;;;;;;;;;6.40;99.90;;;;;;2090744;28;19915;-73
2022/01/09 04:55:05;;;;;;;;;;;6.40;99.90;;;;;;2085238;28;19917;-73
2022/01/09 04:56:06;;;;;;;;;;;6.40;99.90;;;;;;2090987;28;19909;-73
2022/01/09 04:57:06;;;;;;;;;;;6.40;99.90;;;;;;2090859;28;19939;-73
2022/01/09 04:58:08;;;;;;;;;;;6.40;99.90;;;;;;2091079;28;19913;-73
2022/01/09 04:59:09;;;;;;;;;;;6.40;99.90;;;;;;2089605;28;20033;-73
2022/01/09 05:00:09;;;;;;;;;;;6.40;99.90;;;;;;2090624;28;19912;-73
2022/01/09 05:01:10;;;;;;;;;;;6.40;99.90;;;;;;2091020;28;19909;-73
2022/01/09 05:02:10;;;;;;;;;;;6.50;99.90;;;;;;2090971;28;20545;-73
2022/01/09 05:03:12;;;;;;;;;;;6.50;99.90;;;;;;2090793;28;19915;-73
2022/01/09 05:04:12;;;;;;;;;;;6.50;99.90;;;;;;2089903;28;19909;-72
2022/01/09 05:05:13;;;;;;;;;;;6.50;99.90;;;;;;2088681;28;19942;-73
2022/01/09 05:06:14;;;;;;;;;;;6.50;99.90;;;;;;2089590;28;19951;-73
2022/01/09 05:07:14;;;;;;;;;;;6.50;99.90;;;;;;2089082;28;19916;-73
2022/01/09 05:08:15;;;;;;;;;;;6.50;99.90;;;;;;2088076;28;19920;-72
2022/01/09 05:09:15;;;;;;;;;;;6.50;99.90;;;;;;2096588;28;19913;-73
2022/01/09 05:10:15;;;;;;;;;;;6.50;99.90;;;;;;2089543;28;19908;-72
2022/01/09 05:11:16;;;;;;;;;;;6.50;99.90;;;;;;2089556;28;20266;-73
2022/01/09 05:12:16;;;;;;;;;;;6.50;99.90;;;;;;2089532;28;19917;-73
2022/01/09 05:13:17;;;;;;;;;;;6.50;99.90;;;;;;2089830;28;19917;-73
2022/01/09 05:14:17;;;;;;;;;;;6.50;99.90;;;;;;2089452;28;19908;-72
2022/01/09 05:15:20;;;;;;;;;;;6.50;99.90;;;;;;2088986;28;19995;-73
2022/01/09 05:16:20;;;;;;;;;;;6.60;99.90;;;;;;2088568;28;19957;-73
2022/01/09 05:17:20;;;;;;;;;;;6.60;99.90;;;;;;2089732;28;19963;-73
2022/01/09 05:18:21;;;;;;;;;;;6.60;99.90;;;;;;2089362;28;19913;-73
2022/01/09 05:19:28;;;;;;;;;;;6.60;99.90;;;;;;2089091;28;19920;-72
2022/01/09 05:20:29;;;;;;;;;;;6.60;99.90;;;;;;2081418;28;19910;-73
2022/01/09 05:21:29;;;;;;;;;;;6.60;99.90;;;;;;2086045;28;20458;-73
2022/01/09 05:22:30;;;;;;;;;;;6.60;99.90;;;;;;2088785;28;19920;-72
2022/01/09 05:23:30;;;;;;;;;;;6.70;99.90;;;;;;2089803;28;20408;-73
2022/01/09 05:24:31;;;;;;;;;;;6.70;99.90;;;;;;2089499;28;19913;-73
2022/01/09 05:25:31;;;;;;;;;;;6.60;99.90;;;;;;2089573;28;19909;-72
2022/01/09 05:26:32;;;;;;;;;;;6.70;99.90;;;;;;2089176;28;19909;-73
2022/01/09 05:27:33;;;;;;;;;;;6.70;99.90;;;;;;2088136;28;19917;-72
2022/01/09 05:28:33;;;;;;;;;;;6.70;99.90;;;;;;2089407;28;19908;-72
2022/01/09 05:29:34;;;;;;;;;;;6.70;99.90;;;;;;2089237;28;19913;-73
2022/01/09 05:30:34;;;;;;;;;;;6.70;99.90;;;;;;2089359;28;19913;-72
2022/01/09 05:31:35;;;;;;;;;;;6.70;99.90;;;;;;2089422;28;20288;-72
2022/01/09 05:32:35;;;;;;;;;;;6.70;99.90;;;;;;2088514;28;20719;-72
2022/01/09 05:33:36;;;;;;;;;;;6.70;99.90;;;;;;2092227;28;20467;-73
2022/01/09 05:34:36;;;;;;;;;;;6.70;99.90;;;;;;2089363;28;19920;-72
2022/01/09 05:35:36;;;;;;;;;;;6.70;99.90;;;;;;2096856;28;19916;-73
2022/01/09 05:36:37;;;;;;;;;;;6.70;99.90;;;;;;2097076;28;20017;-73
2022/01/09 05:37:37;;;;;;;;;;;6.70;99.90;;;;;;2089484;28;19909;-73
2022/01/09 05:38:38;;;;;;;;;;;6.80;99.90;;;;;;2096789;28;20006;-72
2022/01/09 05:39:38;;;;;;;;;;;6.80;99.90;;;;;;2096573;28;19917;-73
2022/01/09 05:40:39;;;;;;;;;;;6.80;99.90;;;;;;2089490;28;19920;-73
2022/01/09 05:41:40;;;;;;;;;;;6.80;99.90;;;;;;2089563;28;19909;-72
2022/01/09 05:42:41;;;;;;;;;;;6.80;99.90;;;;;;2087704;28;19909;-72
2022/01/09 05:43:41;;;;;;;;;;;6.80;99.90;;;;;;2089032;28;19917;-73
2022/01/09 05:44:42;;;;;;;;;;;6.80;99.90;;;;;;2088737;28;19946;-73
2022/01/09 05:45:42;;;;;;;;;;;6.80;99.90;;;;;;2088372;28;20343;-73
2022/01/09 05:46:43;;;;;;;;;;;6.80;99.90;;;;;;2089077;28;19909;-73
2022/01/09 05:47:44;;;;;;;;;;;6.80;99.90;;;;;;2089237;28;19913;-73
2022/01/09 05:48:44;;;;;;;;;;;6.80;99.90;;;;;;2097129;28;19909;-73
2022/01/09 05:49:45;;;;;;;;;;;6.80;99.90;;;;;;2096302;28;19916;-72
2022/01/09 05:50:45;;;;;;;;;;;6.80;99.90;;;;;;2089375;28;19954;-72
2022/01/09 05:51:46;;;;;;;;;;;6.80;99.90;;;;;;2089255;28;19936;-73
2022/01/09 05:52:46;;;;;;;;;;;6.80;99.90;;;;;;2089511;28;19923;-72
2022/01/09 05:53:46;;;;;;;;;;;6.80;99.90;;;;;;2089092;28;20333;-73
2022/01/09 05:54:48;;;;;;;;;;;6.70;99.90;;;;;;2096773;28;19908;-73
2022/01/09 05:55:49;;;;;;;;;;;6.80;99.90;;;;;;2088327;28;19909;-73
2022/01/09 05:56:51;;;;;;;;;;;6.80;99.90;;;;;;2088602;28;20400;-73
2022/01/09 05:57:52;;;;;;;;;;;6.80;99.90;;;;;;2082570;28;20070;-73
2022/01/09 05:58:52;;;;;;;;;;;6.80;99.90;;;;;;2086752;28;19928;-74
2022/01/09 05:59:53;;;;;;;;;;;6.80;99.90;;;;;;2088694;28;19952;-73
2022/01/09 06:00:53;;;;;;;;;;;6.80;99.90;;;;;;2089153;28;20308;-73
2022/01/09 06:01:55;;;;;;;;;;;6.80;99.90;;;;;;2086945;28;19948;-73
2022/01/09 06:02:55;;;;;;;;;;;6.80;99.90;;;;;;2088609;28;19912;-73
2022/01/09 06:03:56;;;;;;;;;;;6.80;99.90;;;;;;2087993;28;19917;-73